createdAt,value
2023-04-26T00:01:42.775Z,99.90
2023-04-26T00:04:10.785Z,99.90
2023-04-26T00:06:38.670Z,99.90
2023-04-26T00:09:08.021Z,99.90
2023-04-26T00:11:35.996Z,99.90
2023-04-26T00:14:03.725Z,99.90
2023-04-26T00:16:31.665Z,99.90
2023-04-26T00:18:59.357Z,99.90
2023-04-26T00:21:27.129Z,99.90
2023-04-26T00:23:54.999Z,99.90
2023-04-26T00:26:22.783Z,99.90
2023-04-26T00:28:50.681Z,99.90
2023-04-26T00:31:18.870Z,99.90
2023-04-26T00:33:46.677Z,99.90
2023-04-26T00:36:17.089Z,99.90
2023-04-26T00:38:45.999Z,99.90
2023-04-26T00:41:14.367Z,99.90
2023-04-26T00:43:42.192Z,99.90
2023-04-26T00:46:10.380Z,99.90
2023-04-26T00:48:38.179Z,99.90
2023-04-26T00:51:08.101Z,99.90
2023-04-26T00:53:36.610Z,99.90
2023-04-26T00:56:09.428Z,99.90
2023-04-26T00:58:38.221Z,99.90
2023-04-26T01:01:06.149Z,99.90
2023-04-26T01:03:34.296Z,99.90
2023-04-26T01:06:02.386Z,99.90
2023-04-26T01:08:30.044Z,99.90
2023-04-26T01:10:59.494Z,99.90
2023-04-26T01:13:27.606Z,99.90
2023-04-26T01:15:56.448Z,99.90
2023-04-26T01:18:24.413Z,99.90
2023-04-26T01:20:53.566Z,99.90
2023-04-26T01:23:21.341Z,99.90
2023-04-26T01:25:49.734Z,99.90
2023-04-26T01:28:17.437Z,99.90
2023-04-26T01:30:45.316Z,99.90
2023-04-26T01:33:13.123Z,99.90
2023-04-26T01:35:40.825Z,99.90
2023-04-26T01:38:08.910Z,99.90
2023-04-26T01:40:36.875Z,99.90
2023-04-26T01:43:07.462Z,99.90
2023-04-26T01:45:35.300Z,99.90
2023-04-26T01:48:28.843Z,99.90
2023-04-26T01:50:56.643Z,99.90
2023-04-26T01:53:24.395Z,99.90
2023-04-26T01:55:52.237Z,99.90
2023-04-26T01:58:20.080Z,99.90
2023-04-26T02:00:47.788Z,99.90
2023-04-26T02:03:15.613Z,99.90
2023-04-26T02:05:43.397Z,99.90
2023-04-26T02:08:11.196Z,99.90
2023-04-26T02:10:39.706Z,99.90
2023-04-26T02:13:08.925Z,99.90
2023-04-26T02:15:37.504Z,99.90
2023-04-26T02:18:05.945Z,99.90
2023-04-26T02:20:34.040Z,99.90
2023-04-26T02:23:01.632Z,99.90
2023-04-26T02:25:29.338Z,99.90
2023-04-26T02:27:57.160Z,99.90
2023-04-26T02:30:24.734Z,99.90
2023-04-26T02:32:54.791Z,99.90
2023-04-26T02:35:22.901Z,99.90
2023-04-26T02:37:52.543Z,99.90
2023-04-26T02:40:20.732Z,99.90
2023-04-26T02:42:49.225Z,99.90
2023-04-26T02:45:17.178Z,99.90
2023-04-26T02:47:45.108Z,99.90
2023-04-26T02:50:13.069Z,99.90
2023-04-26T02:52:41.156Z,99.90
2023-04-26T02:55:09.762Z,99.90
2023-04-26T02:57:38.251Z,99.90
2023-04-26T03:00:09.157Z,99.90
2023-04-26T03:02:37.708Z,99.90
2023-04-26T03:05:05.693Z,99.90
2023-04-26T03:07:34.363Z,99.90
2023-04-26T03:10:03.315Z,99.90
2023-04-26T03:12:31.259Z,99.90
2023-04-26T03:15:03.306Z,99.90
2023-04-26T03:17:31.600Z,99.90
2023-04-26T03:20:02.377Z,99.90
2023-04-26T03:22:30.677Z,99.90
2023-04-26T03:24:58.373Z,99.90
2023-04-26T03:27:28.519Z,99.90
2023-04-26T03:29:56.635Z,99.90
2023-04-26T03:32:24.574Z,99.90
2023-04-26T03:34:52.505Z,99.90
2023-04-26T03:37:20.372Z,99.90
2023-04-26T03:39:55.134Z,99.90
2023-04-26T03:42:24.008Z,99.90
2023-04-26T03:44:52.027Z,99.90
2023-04-26T03:47:20.503Z,99.90
2023-04-26T03:49:48.177Z,99.90
2023-04-26T03:52:16.121Z,99.90
2023-04-26T03:54:43.860Z,99.90
2023-04-26T03:57:12.997Z,99.90
2023-04-26T03:59:41.238Z,99.90
2023-04-26T04:02:08.987Z,99.90
2023-04-26T04:04:37.650Z,99.90
2023-04-26T04:07:05.970Z,99.90
2023-04-26T04:09:34.792Z,99.90
2023-04-26T04:12:03.189Z,99.90
2023-04-26T04:14:30.983Z,99.90
2023-04-26T04:16:59.737Z,99.90
2023-04-26T04:19:28.474Z,99.90
2023-04-26T04:21:56.453Z,99.90
2023-04-26T04:24:25.805Z,99.90
2023-04-26T04:26:54.597Z,99.90
2023-04-26T04:29:22.798Z,99.90
2023-04-26T04:31:50.880Z,99.90
2023-04-26T04:34:19.184Z,99.90
2023-04-26T04:36:47.860Z,99.90
2023-04-26T04:39:17.318Z,99.90
2023-04-26T04:41:49.201Z,99.90
2023-04-26T04:44:19.023Z,99.90
2023-04-26T04:46:47.335Z,99.90
2023-04-26T04:49:15.567Z,99.90
2023-04-26T04:51:43.594Z,99.90
2023-04-26T04:54:17.978Z,99.90
2023-04-26T04:56:47.733Z,99.90
2023-04-26T04:59:17.000Z,99.90
2023-04-26T05:01:44.697Z,99.90
2023-04-26T05:04:15.430Z,99.90
2023-04-26T05:06:44.113Z,99.90
2023-04-26T05:09:12.520Z,99.90
2023-04-26T05:11:40.279Z,99.90
2023-04-26T05:14:09.874Z,99.90
2023-04-26T05:16:38.593Z,99.90
2023-04-26T05:19:09.165Z,99.90
2023-04-26T05:21:37.749Z,99.90
2023-04-26T05:24:06.966Z,99.90
2023-04-26T05:26:35.930Z,99.90
2023-04-26T05:29:12.870Z,99.90
2023-04-26T05:32:00.805Z,99.90
2023-04-26T05:34:45.515Z,99.90
2023-04-26T05:37:18.066Z,99.90
2023-04-26T05:39:45.952Z,99.90
2023-04-26T05:42:15.170Z,99.90
2023-04-26T05:44:44.182Z,99.90
2023-04-26T05:47:13.263Z,99.90
2023-04-26T05:49:41.015Z,99.90
2023-04-26T05:52:08.817Z,99.90
2023-04-26T05:54:37.943Z,99.90
2023-04-26T05:57:06.307Z,99.90
2023-04-26T05:59:37.128Z,99.90
2023-04-26T06:02:05.618Z,99.90
2023-04-26T06:04:33.657Z,99.90
2023-04-26T06:07:07.492Z,99.90
2023-04-26T06:09:35.329Z,99.90
2023-04-26T06:12:04.040Z,99.90
2023-04-26T06:14:34.237Z,99.90
2023-04-26T06:17:06.727Z,99.90
2023-04-26T06:19:34.709Z,99.90
2023-04-26T06:22:02.535Z,99.90
2023-04-26T06:24:31.123Z,99.90
2023-04-26T06:26:59.508Z,99.90
2023-04-26T06:29:28.455Z,99.90
2023-04-26T06:31:56.182Z,99.90
2023-04-26T06:34:25.724Z,99.90
2023-04-26T06:36:54.111Z,99.90
2023-04-26T06:39:24.071Z,99.90
2023-04-26T06:41:52.684Z,99.90
2023-04-26T06:44:28.742Z,99.90
2023-04-26T06:47:02.892Z,99.90
2023-04-26T06:49:30.654Z,99.90
2023-04-26T06:51:58.276Z,99.90
2023-04-26T06:54:29.783Z,99.90
2023-04-26T06:56:58.431Z,99.90
2023-04-26T06:59:27.209Z,99.90
2023-04-26T07:01:55.111Z,99.90
2023-04-26T07:04:23.337Z,99.90
2023-04-26T07:06:51.348Z,99.90
2023-04-26T07:09:18.980Z,99.90
2023-04-26T07:11:47.747Z,99.90
2023-04-26T07:14:15.603Z,99.90
2023-04-26T07:16:43.710Z,99.90
2023-04-26T07:19:12.117Z,99.90
2023-04-26T07:21:39.812Z,99.90
2023-04-26T07:24:08.398Z,99.90
2023-04-26T07:26:39.227Z,99.90
2023-04-26T07:29:07.064Z,99.90
2023-04-26T07:31:34.807Z,99.90
2023-04-26T07:34:02.535Z,99.90
2023-04-26T07:36:31.703Z,99.90
2023-04-26T07:38:59.426Z,99.90
2023-04-26T07:41:27.287Z,99.90
2023-04-26T07:43:55.172Z,99.90
2023-04-26T07:46:23.016Z,99.90
2023-04-26T07:48:51.003Z,99.90
2023-04-26T07:51:18.762Z,99.90
2023-04-26T07:53:46.554Z,99.90
2023-04-26T07:56:15.443Z,99.90
2023-04-26T07:58:43.050Z,99.90
2023-04-26T08:01:14.017Z,99.90
2023-04-26T08:03:44.986Z,99.90
2023-04-26T08:06:13.213Z,99.90
2023-04-26T08:08:45.055Z,99.90
2023-04-26T08:11:12.912Z,99.90
2023-04-26T08:13:40.662Z,99.90
2023-04-26T08:16:08.466Z,99.90
2023-04-26T08:18:36.219Z,99.90
2023-04-26T08:21:04.275Z,99.90
2023-04-26T08:23:39.065Z,99.90
2023-04-26T08:26:07.470Z,99.90
2023-04-26T08:28:35.900Z,99.90
2023-04-26T08:31:03.899Z,99.90
2023-04-26T08:33:31.668Z,99.90
2023-04-26T08:36:01.442Z,99.90
2023-04-26T08:38:29.874Z,99.90
2023-04-26T08:41:02.167Z,99.90
2023-04-26T08:43:30.438Z,99.90
2023-04-26T08:45:59.933Z,99.90
2023-04-26T08:48:32.089Z,99.90
2023-04-26T08:51:01.134Z,99.90
2023-04-26T08:53:30.210Z,99.90
2023-04-26T08:55:58.295Z,99.90
2023-04-26T08:58:27.243Z,99.90
2023-04-26T09:00:55.565Z,99.90
2023-04-26T09:03:26.866Z,99.90
2023-04-26T09:05:55.476Z,99.90
2023-04-26T09:08:23.354Z,99.90
2023-04-26T09:10:51.240Z,99.90
2023-04-26T09:13:18.884Z,99.90
2023-04-26T09:15:48.929Z,99.90
2023-04-26T09:18:21.889Z,99.90
2023-04-26T09:21:04.050Z,99.90
2023-04-26T09:23:32.361Z,99.90
2023-04-26T09:26:19.646Z,99.90
2023-04-26T09:28:47.760Z,99.90
2023-04-26T09:31:41.188Z,99.90
2023-04-26T09:34:11.211Z,99.90
2023-04-26T09:36:57.540Z,99.90
2023-04-26T09:39:40.908Z,99.90
2023-04-26T09:42:10.210Z,99.90
2023-04-26T09:44:38.683Z,99.90
2023-04-26T09:47:12.017Z,99.90
2023-04-26T09:49:52.000Z,99.90
2023-04-26T09:52:20.739Z,99.90
2023-04-26T09:54:54.183Z,99.90
2023-04-26T09:57:23.765Z,99.90
2023-04-26T09:59:55.579Z,99.90
2023-04-26T10:02:26.344Z,99.90
2023-04-26T10:04:56.326Z,99.90
2023-04-26T10:07:26.154Z,99.90
2023-04-26T10:09:55.833Z,99.90
2023-04-26T10:12:23.720Z,99.90
2023-04-26T10:14:51.580Z,99.90
2023-04-26T10:17:21.092Z,99.90
2023-04-26T10:19:52.544Z,99.90
2023-04-26T10:22:34.112Z,99.90
2023-04-26T10:25:02.034Z,99.90
2023-04-26T10:28:03.636Z,99.90
2023-04-26T10:30:32.443Z,99.90
2023-04-26T10:33:00.360Z,99.90
2023-04-26T10:35:31.061Z,99.90
2023-04-26T10:38:02.285Z,99.90
2023-04-26T10:40:31.653Z,99.90
2023-04-26T10:43:20.397Z,99.90
2023-04-26T10:45:49.539Z,99.90
2023-04-26T10:48:31.684Z,99.90
2023-04-26T10:51:02.313Z,99.90
2023-04-26T10:53:30.982Z,99.90
2023-04-26T10:55:58.945Z,99.90
2023-04-26T10:58:34.136Z,99.90
2023-04-26T11:01:18.841Z,99.90
2023-04-26T11:04:10.951Z,99.90
2023-04-26T11:06:54.564Z,99.90
2023-04-26T11:09:48.546Z,99.90
2023-04-26T11:12:16.817Z,99.90
2023-04-26T11:14:49.297Z,99.90
2023-04-26T11:17:17.004Z,99.90
2023-04-26T11:19:47.812Z,99.90
2023-04-26T11:22:15.742Z,99.90
2023-04-26T11:24:43.476Z,99.90
2023-04-26T11:27:14.242Z,99.90
2023-04-26T11:29:41.958Z,99.90
2023-04-26T11:32:11.014Z,99.90
2023-04-26T11:34:39.597Z,99.90
2023-04-26T11:37:08.416Z,99.90
2023-04-26T11:39:37.695Z,99.90
2023-04-26T11:42:10.234Z,99.90
2023-04-26T11:44:39.114Z,99.90
2023-04-26T11:47:08.078Z,99.90
2023-04-26T11:49:39.458Z,99.90
2023-04-26T11:52:09.038Z,99.90
2023-04-26T11:54:38.033Z,99.90
2023-04-26T11:57:19.554Z,99.90
2023-04-26T11:59:47.569Z,99.90
2023-04-26T12:02:15.801Z,99.90
2023-04-26T12:04:45.073Z,99.90
2023-04-26T12:07:12.894Z,99.90
2023-04-26T12:09:44.806Z,99.90
2023-04-26T12:12:12.540Z,99.90
2023-04-26T12:14:41.400Z,99.90
2023-04-26T12:17:10.618Z,99.90
2023-04-26T12:19:40.792Z,99.90
2023-04-26T12:22:09.099Z,99.90
2023-04-26T12:24:39.739Z,99.90
2023-04-26T12:27:08.031Z,99.90
2023-04-26T12:29:36.125Z,99.90
2023-04-26T12:32:04.607Z,99.90
2023-04-26T12:34:32.323Z,99.90
2023-04-26T12:37:00.209Z,99.90
2023-04-26T12:39:27.904Z,99.90
2023-04-26T12:41:55.632Z,99.90
2023-04-26T12:44:23.435Z,99.90
2023-04-26T12:46:51.610Z,99.90
2023-04-26T12:49:19.223Z,99.90
2023-04-26T12:51:47.471Z,99.90
2023-04-26T12:54:15.224Z,99.90
2023-04-26T12:56:44.613Z,99.90
2023-04-26T12:59:12.559Z,99.90
2023-04-26T13:01:40.353Z,99.90
2023-04-26T13:04:08.694Z,99.90
2023-04-26T13:06:36.614Z,99.90
2023-04-26T13:09:04.301Z,99.90
2023-04-26T13:11:32.068Z,99.90
2023-04-26T13:13:59.818Z,99.50
2023-04-26T13:16:27.601Z,99.90
2023-04-26T13:18:56.365Z,99.60
2023-04-26T13:21:24.073Z,99.90
2023-04-26T13:23:51.820Z,99.90
2023-04-26T13:26:19.541Z,99.90
2023-04-26T13:28:47.748Z,99.90
2023-04-26T13:31:17.653Z,98.80
2023-04-26T13:33:47.612Z,99.70
2023-04-26T13:36:16.396Z,99.40
2023-04-26T13:38:44.734Z,98.60
2023-04-26T13:41:12.624Z,97.70
2023-04-26T13:43:40.528Z,96.20
2023-04-26T13:46:08.362Z,94.20
2023-04-26T13:48:36.239Z,94.90
2023-04-26T13:51:07.002Z,94.30
2023-04-26T13:53:35.090Z,95.40
2023-04-26T13:56:02.849Z,96.20
2023-04-26T13:58:30.791Z,96.10
2023-04-26T14:00:58.537Z,94.40
2023-04-26T14:03:27.122Z,94.20
2023-04-26T14:05:56.639Z,93.20
2023-04-26T14:08:24.338Z,93.80
2023-04-26T14:10:51.984Z,91.70
2023-04-26T14:13:19.711Z,92.80
2023-04-26T14:15:48.179Z,92.90
2023-04-26T14:18:17.383Z,93.60
2023-04-26T14:20:45.245Z,88.50
2023-04-26T14:23:12.901Z,91.50
2023-04-26T14:25:40.896Z,90.90
2023-04-26T14:28:08.713Z,81.60
2023-04-26T14:30:36.456Z,79.60
2023-04-26T14:33:04.566Z,76.10
2023-04-26T14:35:32.183Z,72.50
2023-04-26T14:37:59.836Z,70.40
2023-04-26T14:40:27.653Z,62.20
2023-04-26T14:42:55.262Z,71.80
2023-04-26T14:45:30.433Z,80.80
2023-04-26T14:48:05.369Z,85.60
2023-04-26T14:50:33.167Z,86.80
2023-04-26T14:53:00.944Z,84.40
2023-04-26T14:55:28.936Z,79.20
2023-04-26T14:57:56.898Z,77.70
2023-04-26T15:00:25.711Z,75.00
2023-04-26T15:02:53.637Z,75.80
2023-04-26T15:05:21.984Z,75.00
2023-04-26T15:07:49.724Z,75.30
2023-04-26T15:10:17.387Z,76.80
2023-04-26T15:12:45.146Z,77.70
2023-04-26T15:15:12.894Z,79.60
2023-04-26T15:17:40.639Z,79.40
2023-04-26T15:20:09.700Z,79.20
2023-04-26T15:22:38.950Z,78.40
2023-04-26T15:25:07.498Z,75.80
2023-04-26T15:27:36.320Z,79.40
2023-04-26T15:30:05.328Z,78.30
2023-04-26T15:32:33.148Z,79.70
2023-04-26T15:35:00.968Z,83.10
2023-04-26T15:37:28.733Z,83.00
2023-04-26T15:39:56.462Z,77.80
2023-04-26T15:42:24.275Z,81.80
2023-04-26T15:44:51.940Z,83.30
2023-04-26T15:47:19.646Z,80.50
2023-04-26T15:49:47.356Z,83.70
2023-04-26T15:52:17.143Z,84.40
2023-04-26T15:54:44.895Z,85.40
2023-04-26T15:57:12.784Z,86.20
2023-04-26T15:59:40.618Z,84.00
2023-04-26T16:02:08.347Z,84.20
2023-04-26T16:04:36.225Z,82.40
2023-04-26T16:07:04.544Z,82.20
2023-04-26T16:09:32.213Z,82.80
2023-04-26T16:11:59.958Z,83.90
2023-04-26T16:14:27.718Z,84.40
2023-04-26T16:16:55.645Z,83.40
2023-04-26T16:19:24.772Z,82.60
2023-04-26T16:21:52.439Z,82.80
2023-04-26T16:24:20.620Z,83.60
2023-04-26T16:26:48.380Z,86.80
2023-04-26T16:29:16.185Z,84.30
2023-04-26T16:31:44.620Z,86.10
2023-04-26T16:34:13.234Z,85.60
2023-04-26T16:36:40.924Z,87.50
2023-04-26T16:39:08.633Z,88.40
2023-04-26T16:41:36.300Z,90.40
2023-04-26T16:44:04.081Z,88.70
2023-04-26T16:46:32.393Z,91.10
2023-04-26T16:49:00.066Z,90.30
2023-04-26T16:51:28.034Z,90.00
2023-04-26T16:53:56.279Z,88.60
2023-04-26T16:56:23.824Z,91.20
2023-04-26T16:58:51.875Z,92.00
2023-04-26T17:01:19.489Z,91.30
2023-04-26T17:03:47.464Z,90.90
2023-04-26T17:06:15.406Z,92.80
2023-04-26T17:08:43.285Z,93.80
2023-04-26T17:11:15.291Z,92.90
2023-04-26T17:13:43.459Z,93.30
2023-04-26T17:16:11.405Z,92.60
2023-04-26T17:18:39.170Z,93.10
2023-04-26T17:21:07.296Z,93.20
2023-04-26T17:23:35.227Z,93.70
2023-04-26T17:26:03.266Z,91.50
2023-04-26T17:28:31.769Z,90.10
2023-04-26T17:30:59.534Z,90.60
2023-04-26T17:33:27.287Z,91.30
2023-04-26T17:35:55.016Z,92.10
2023-04-26T17:38:22.724Z,92.10
2023-04-26T17:40:54.616Z,91.80
2023-04-26T17:43:22.666Z,92.90
2023-04-26T17:45:51.763Z,93.70
2023-04-26T17:48:19.749Z,94.50
2023-04-26T17:50:47.724Z,94.80
2023-04-26T17:53:16.125Z,93.90
2023-04-26T17:55:43.870Z,94.80
2023-04-26T17:58:11.782Z,94.80
2023-04-26T18:00:39.678Z,95.20
2023-04-26T18:03:08.174Z,95.70
2023-04-26T18:05:36.236Z,96.00
2023-04-26T18:08:07.310Z,96.60
2023-04-26T18:10:35.090Z,97.00
2023-04-26T18:13:03.048Z,97.70
2023-04-26T18:15:31.070Z,97.70
2023-04-26T18:17:58.885Z,98.50
2023-04-26T18:20:27.241Z,99.70
2023-04-26T18:22:54.904Z,99.90
2023-04-26T18:25:22.802Z,99.90
2023-04-26T18:27:50.659Z,99.90
2023-04-26T18:30:18.594Z,99.90
2023-04-26T18:32:46.565Z,99.90
2023-04-26T18:35:14.810Z,99.90
2023-04-26T18:37:42.610Z,99.90
2023-04-26T18:40:10.749Z,99.90
2023-04-26T18:42:39.057Z,99.90
2023-04-26T18:45:07.919Z,99.90
2023-04-26T18:47:35.736Z,99.90
2023-04-26T18:50:03.787Z,99.90
2023-04-26T18:52:31.675Z,99.90
2023-04-26T18:54:59.887Z,99.90
2023-04-26T18:57:27.746Z,99.90
2023-04-26T18:59:57.411Z,99.90
2023-04-26T19:02:25.458Z,99.90
2023-04-26T19:04:53.601Z,99.90
2023-04-26T19:07:21.819Z,99.90
2023-04-26T19:09:54.210Z,99.90
2023-04-26T19:12:23.281Z,99.90
2023-04-26T19:14:51.259Z,99.90
2023-04-26T19:17:19.335Z,99.90
2023-04-26T19:19:47.155Z,99.90
2023-04-26T19:22:15.222Z,99.90
2023-04-26T19:24:43.123Z,99.90
2023-04-26T19:27:11.676Z,99.90
2023-04-26T19:29:39.619Z,99.90
2023-04-26T19:32:07.413Z,99.90
2023-04-26T19:34:38.973Z,99.90
2023-04-26T19:37:07.246Z,99.90
2023-04-26T19:39:35.025Z,99.90
2023-04-26T19:42:03.157Z,99.90
2023-04-26T19:44:31.392Z,99.90
2023-04-26T19:46:59.341Z,99.90
2023-04-26T19:49:29.019Z,99.90
2023-04-26T19:51:57.170Z,99.90
2023-04-26T19:54:24.964Z,99.90
2023-04-26T19:56:52.673Z,99.90
2023-04-26T19:59:20.854Z,99.90
2023-04-26T20:01:49.233Z,99.90
2023-04-26T20:04:18.810Z,99.90
2023-04-26T20:06:46.772Z,99.90
2023-04-26T20:09:14.697Z,99.90
2023-04-26T20:11:42.440Z,99.90
2023-04-26T20:14:10.217Z,99.90
2023-04-26T20:16:38.110Z,99.90
2023-04-26T20:19:06.395Z,99.90
2023-04-26T20:21:34.415Z,99.90
2023-04-26T20:24:02.942Z,99.90
2023-04-26T20:26:31.160Z,99.90
2023-04-26T20:28:58.957Z,99.90
2023-04-26T20:31:27.074Z,99.90
2023-04-26T20:33:54.876Z,99.90
2023-04-26T20:36:22.689Z,99.90
2023-04-26T20:38:51.278Z,99.90
2023-04-26T20:41:19.501Z,99.90
2023-04-26T20:43:47.344Z,99.90
2023-04-26T20:46:15.131Z,99.90
2023-04-26T20:48:43.422Z,99.90
2023-04-26T20:51:11.249Z,99.90
2023-04-26T20:53:38.948Z,99.90
2023-04-26T20:56:07.199Z,99.90
2023-04-26T20:58:35.155Z,99.90
2023-04-26T21:01:07.334Z,99.90
2023-04-26T21:03:36.033Z,99.90
2023-04-26T21:06:04.099Z,99.90
2023-04-26T21:08:31.864Z,99.90
2023-04-26T21:10:59.592Z,99.90
2023-04-26T21:13:30.311Z,99.90
2023-04-26T21:15:58.004Z,99.90
2023-04-26T21:18:26.103Z,99.90
2023-04-26T21:20:53.770Z,99.90
2023-04-26T21:23:21.622Z,99.90
2023-04-26T21:25:49.707Z,99.90
2023-04-26T21:28:17.506Z,99.90
2023-04-26T21:30:45.547Z,99.90
2023-04-26T21:33:16.043Z,99.90
2023-04-26T21:35:43.856Z,99.90
2023-04-26T21:38:11.468Z,99.90
2023-04-26T21:40:39.265Z,99.90
2023-04-26T21:43:07.120Z,99.90
2023-04-26T21:45:35.439Z,99.90
2023-04-26T21:48:03.222Z,99.90
2023-04-26T21:50:30.988Z,99.90
2023-04-26T21:52:58.958Z,99.90
2023-04-26T21:55:27.049Z,99.90
2023-04-26T21:57:54.631Z,99.90
2023-04-26T22:00:22.531Z,99.90
2023-04-26T22:02:51.690Z,99.90
2023-04-26T22:05:19.573Z,99.90
2023-04-26T22:07:47.333Z,99.90
2023-04-26T22:10:16.729Z,99.90
2023-04-26T22:12:44.537Z,99.90
2023-04-26T22:15:12.515Z,99.90
2023-04-26T22:17:40.434Z,99.90
2023-04-26T22:20:08.786Z,99.90
2023-04-26T22:22:36.720Z,99.90
2023-04-26T22:25:04.729Z,99.90
2023-04-26T22:27:32.607Z,99.90
2023-04-26T22:30:06.172Z,99.90
2023-04-26T22:32:40.441Z,99.90
2023-04-26T22:35:08.439Z,99.90
2023-04-26T22:37:36.445Z,99.90
2023-04-26T22:40:04.669Z,99.90
2023-04-26T22:42:32.413Z,99.90
2023-04-26T22:45:00.203Z,99.90
2023-04-26T22:47:27.943Z,99.90
2023-04-26T22:49:56.015Z,99.90
2023-04-26T22:52:31.386Z,99.90
2023-04-26T22:55:00.741Z,99.90
2023-04-26T22:57:29.710Z,99.90
2023-04-26T22:59:57.469Z,99.90
2023-04-26T23:02:25.364Z,99.90
2023-04-26T23:04:53.275Z,99.90
2023-04-26T23:07:21.483Z,99.90
2023-04-26T23:09:49.227Z,99.90
2023-04-26T23:12:20.674Z,99.90
2023-04-26T23:14:48.892Z,99.90
2023-04-26T23:17:16.905Z,99.90
2023-04-26T23:19:44.684Z,99.90
2023-04-26T23:22:12.445Z,99.90
2023-04-26T23:24:40.092Z,99.90
2023-04-26T23:27:07.829Z,99.90
2023-04-26T23:29:35.854Z,99.90
2023-04-26T23:32:03.746Z,99.90
2023-04-26T23:34:31.524Z,99.90
2023-04-26T23:37:07.344Z,99.90
2023-04-26T23:39:36.586Z,99.90
2023-04-26T23:42:04.280Z,99.90
2023-04-26T23:44:32.084Z,99.90
2023-04-26T23:46:59.934Z,99.90
2023-04-26T23:49:27.842Z,99.90
2023-04-26T23:51:55.719Z,99.90
2023-04-26T23:54:23.455Z,99.90
2023-04-26T23:56:51.434Z,99.90
2023-04-26T23:59:19.120Z,99.90
